sensor_id;sensor_type;location;lat;lon;timestamp;P1;durP1;ratioP1;P2;durP2;ratioP2
9767;SDS011;4923;52.520;13.494;2024-02-15T00:00:19;3.70;;;3.50;;
9767;SDS011;4923;52.520;13.494;2024-02-15T00:03:07;4.00;;;3.70;;
9767;SDS011;4923;52.520;13.494;2024-02-15T00:05:58;3.60;;;3.40;;
9767;SDS011;4923;52.520;13.494;2024-02-15T00:08:50;3.60;;;3.25;;
9767;SDS011;4923;52.520;13.494;2024-02-15T00:11:37;3.47;;;3.22;;
9767;SDS011;4923;52.520;13.494;2024-02-15T00:14:27;9.10;;;4.90;;
9767;SDS011;4923;52.520;13.494;2024-02-15T00:17:15;4.00;;;3.70;;
9767;SDS011;4923;52.520;13.494;2024-02-15T00:20:03;7.88;;;4.40;;
9767;SDS011;4923;52.520;13.494;2024-02-15T00:22:54;5.45;;;4.20;;
9767;SDS011;4923;52.520;13.494;2024-02-15T00:25:42;4.65;;;4.18;;
9767;SDS011;4923;52.520;13.494;2024-02-15T00:28:30;5.32;;;4.82;;
9767;SDS011;4923;52.520;13.494;2024-02-15T00:31:19;4.68;;;4.30;;
9767;SDS011;4923;52.520;13.494;2024-02-15T00:34:08;4.50;;;4.10;;
9767;SDS011;4923;52.520;13.494;2024-02-15T00:36:56;5.20;;;4.90;;
9767;SDS011;4923;52.520;13.494;2024-02-15T00:39:44;6.43;;;4.80;;
9767;SDS011;4923;52.520;13.494;2024-02-15T00:42:33;5.45;;;5.00;;
9767;SDS011;4923;52.520;13.494;2024-02-15T00:45:20;4.60;;;4.28;;
9767;SDS011;4923;52.520;13.494;2024-02-15T00:48:09;6.03;;;5.57;;
9767;SDS011;4923;52.520;13.494;2024-02-15T00:51:00;4.28;;;3.95;;
9767;SDS011;4923;52.520;13.494;2024-02-15T00:53:49;5.13;;;4.72;;
9767;SDS011;4923;52.520;13.494;2024-02-15T00:56:38;5.40;;;5.03;;
9767;SDS011;4923;52.520;13.494;2024-02-15T00:59:26;5.70;;;5.30;;
9767;SDS011;4923;52.520;13.494;2024-02-15T01:02:13;6.95;;;6.35;;
9767;SDS011;4923;52.520;13.494;2024-02-15T01:05:03;5.43;;;5.03;;
9767;SDS011;4923;52.520;13.494;2024-02-15T01:07:52;5.57;;;5.28;;
9767;SDS011;4923;52.520;13.494;2024-02-15T01:10:41;5.70;;;5.30;;
9767;SDS011;4923;52.520;13.494;2024-02-15T01:13:28;5.75;;;5.40;;
9767;SDS011;4923;52.520;13.494;2024-02-15T01:16:16;5.68;;;5.18;;
9767;SDS011;4923;52.520;13.494;2024-02-15T01:19:02;5.43;;;5.00;;
9767;SDS011;4923;52.520;13.494;2024-02-15T01:21:49;6.70;;;6.18;;
9767;SDS011;4923;52.520;13.494;2024-02-15T01:24:38;5.53;;;5.22;;
9767;SDS011;4923;52.520;13.494;2024-02-15T01:27:25;5.50;;;5.07;;
9767;SDS011;4923;52.520;13.494;2024-02-15T01:30:15;6.93;;;6.25;;
9767;SDS011;4923;52.520;13.494;2024-02-15T01:33:02;5.80;;;5.40;;
9767;SDS011;4923;52.520;13.494;2024-02-15T01:35:50;6.25;;;5.65;;
9767;SDS011;4923;52.520;13.494;2024-02-15T01:38:37;6.18;;;5.82;;
9767;SDS011;4923;52.520;13.494;2024-02-15T01:41:25;6.53;;;6.07;;
9767;SDS011;4923;52.520;13.494;2024-02-15T01:44:12;6.00;;;5.63;;
9767;SDS011;4923;52.520;13.494;2024-02-15T01:46:59;5.88;;;5.57;;
9767;SDS011;4923;52.520;13.494;2024-02-15T01:49:46;6.63;;;6.05;;
9767;SDS011;4923;52.520;13.494;2024-02-15T01:52:34;6.80;;;6.10;;
9767;SDS011;4923;52.520;13.494;2024-02-15T01:55:21;6.90;;;6.30;;
9767;SDS011;4923;52.520;13.494;2024-02-15T01:58:12;6.30;;;5.90;;
9767;SDS011;4923;52.520;13.494;2024-02-15T02:01:00;9.80;;;6.63;;
9767;SDS011;4923;52.520;13.494;2024-02-15T02:03:48;8.10;;;7.20;;
9767;SDS011;4923;52.520;13.494;2024-02-15T02:06:36;7.38;;;6.38;;
9767;SDS011;4923;52.520;13.494;2024-02-15T02:09:23;9.15;;;7.50;;
9767;SDS011;4923;52.520;13.494;2024-02-15T02:12:11;8.95;;;7.05;;
9767;SDS011;4923;52.520;13.494;2024-02-15T02:14:59;6.82;;;5.80;;
9767;SDS011;4923;52.520;13.494;2024-02-15T02:17:48;7.70;;;7.15;;
9767;SDS011;4923;52.520;13.494;2024-02-15T02:20:36;7.50;;;6.82;;
9767;SDS011;4923;52.520;13.494;2024-02-15T02:23:25;9.10;;;7.63;;
9767;SDS011;4923;52.520;13.494;2024-02-15T02:26:14;9.05;;;7.60;;
9767;SDS011;4923;52.520;13.494;2024-02-15T02:29:01;8.95;;;7.95;;
9767;SDS011;4923;52.520;13.494;2024-02-15T02:31:50;8.50;;;6.95;;
9767;SDS011;4923;52.520;13.494;2024-02-15T02:34:37;9.13;;;8.32;;
9767;SDS011;4923;52.520;13.494;2024-02-15T02:37:27;9.07;;;8.10;;
9767;SDS011;4923;52.520;13.494;2024-02-15T02:40:14;8.55;;;7.85;;
9767;SDS011;4923;52.520;13.494;2024-02-15T02:43:03;8.13;;;7.53;;
9767;SDS011;4923;52.520;13.494;2024-02-15T02:45:50;9.02;;;8.32;;
9767;SDS011;4923;52.520;13.494;2024-02-15T02:48:37;11.93;;;8.80;;
9767;SDS011;4923;52.520;13.494;2024-02-15T02:51:24;10.23;;;8.95;;
9767;SDS011;4923;52.520;13.494;2024-02-15T02:54:11;10.05;;;9.07;;
9767;SDS011;4923;52.520;13.494;2024-02-15T02:57:00;9.02;;;8.15;;
9767;SDS011;4923;52.520;13.494;2024-02-15T02:59:54;14.18;;;9.60;;
9767;SDS011;4923;52.520;13.494;2024-02-15T03:02:41;10.23;;;8.52;;
9767;SDS011;4923;52.520;13.494;2024-02-15T03:05:29;12.20;;;9.15;;
9767;SDS011;4923;52.520;13.494;2024-02-15T03:08:16;9.65;;;8.75;;
9767;SDS011;4923;52.520;13.494;2024-02-15T03:11:03;11.02;;;9.85;;
9767;SDS011;4923;52.520;13.494;2024-02-15T03:13:51;9.05;;;7.57;;
9767;SDS011;4923;52.520;13.494;2024-02-15T03:16:40;10.35;;;9.45;;
9767;SDS011;4923;52.520;13.494;2024-02-15T03:19:26;14.32;;;8.90;;
9767;SDS011;4923;52.520;13.494;2024-02-15T03:22:17;9.82;;;8.80;;
9767;SDS011;4923;52.520;13.494;2024-02-15T03:25:04;10.52;;;9.02;;
9767;SDS011;4923;52.520;13.494;2024-02-15T03:27:53;11.48;;;9.18;;
9767;SDS011;4923;52.520;13.494;2024-02-15T03:30:43;10.45;;;9.10;;
9767;SDS011;4923;52.520;13.494;2024-02-15T03:33:32;11.05;;;9.95;;
9767;SDS011;4923;52.520;13.494;2024-02-15T03:36:20;11.43;;;9.38;;
9767;SDS011;4923;52.520;13.494;2024-02-15T03:39:08;16.67;;;9.95;;
9767;SDS011;4923;52.520;13.494;2024-02-15T03:41:55;9.50;;;8.60;;
9767;SDS011;4923;52.520;13.494;2024-02-15T03:44:44;9.68;;;8.70;;
9767;SDS011;4923;52.520;13.494;2024-02-15T03:47:33;9.75;;;8.75;;
9767;SDS011;4923;52.520;13.494;2024-02-15T03:50:22;10.35;;;9.27;;
9767;SDS011;4923;52.520;13.494;2024-02-15T03:53:11;12.25;;;10.23;;
9767;SDS011;4923;52.520;13.494;2024-02-15T03:55:59;9.20;;;8.30;;
9767;SDS011;4923;52.520;13.494;2024-02-15T03:58:46;10.00;;;9.10;;
9767;SDS011;4923;52.520;13.494;2024-02-15T04:01:35;10.50;;;9.43;;
9767;SDS011;4923;52.520;13.494;2024-02-15T04:04:23;10.35;;;9.40;;
9767;SDS011;4923;52.520;13.494;2024-02-15T04:07:12;9.85;;;9.00;;
9767;SDS011;4923;52.520;13.494;2024-02-15T04:09:59;11.75;;;9.30;;
9767;SDS011;4923;52.520;13.494;2024-02-15T04:12:49;9.75;;;8.95;;
9767;SDS011;4923;52.520;13.494;2024-02-15T04:15:36;10.27;;;9.38;;
9767;SDS011;4923;52.520;13.494;2024-02-15T04:18:23;10.50;;;9.60;;
9767;SDS011;4923;52.520;13.494;2024-02-15T04:21:10;10.18;;;8.70;;
9767;SDS011;4923;52.520;13.494;2024-02-15T04:23:59;11.27;;;9.10;;
9767;SDS011;4923;52.520;13.494;2024-02-15T04:26:46;10.25;;;9.27;;
9767;SDS011;4923;52.520;13.494;2024-02-15T04:29:33;12.77;;;10.52;;
9767;SDS011;4923;52.520;13.494;2024-02-15T04:32:22;11.00;;;10.00;;
9767;SDS011;4923;52.520;13.494;2024-02-15T04:35:09;10.75;;;9.50;;
9767;SDS011;4923;52.520;13.494;2024-02-15T04:37:57;11.23;;;10.13;;
9767;SDS011;4923;52.520;13.494;2024-02-15T04:40:46;11.65;;;9.75;;
9767;SDS011;4923;52.520;13.494;2024-02-15T04:43:33;19.10;;;10.77;;
9767;SDS011;4923;52.520;13.494;2024-02-15T04:46:24;10.02;;;9.13;;
9767;SDS011;4923;52.520;13.494;2024-02-15T04:49:11;12.05;;;10.20;;
9767;SDS011;4923;52.520;13.494;2024-02-15T04:52:05;11.13;;;10.02;;
9767;SDS011;4923;52.520;13.494;2024-02-15T04:54:52;11.23;;;9.82;;
9767;SDS011;4923;52.520;13.494;2024-02-15T04:57:41;15.35;;;10.13;;
9767;SDS011;4923;52.520;13.494;2024-02-15T05:00:28;13.23;;;10.90;;
9767;SDS011;4923;52.520;13.494;2024-02-15T05:03:19;10.98;;;9.52;;
9767;SDS011;4923;52.520;13.494;2024-02-15T05:06:06;10.43;;;9.52;;
9767;SDS011;4923;52.520;13.494;2024-02-15T05:08:55;10.68;;;8.98;;
9767;SDS011;4923;52.520;13.494;2024-02-15T05:11:45;11.13;;;9.90;;
9767;SDS011;4923;52.520;13.494;2024-02-15T05:14:35;10.75;;;9.60;;
9767;SDS011;4923;52.520;13.494;2024-02-15T05:17:22;14.13;;;11.02;;
9767;SDS011;4923;52.520;13.494;2024-02-15T05:20:09;9.85;;;8.85;;
9767;SDS011;4923;52.520;13.494;2024-02-15T05:22:58;10.68;;;9.52;;
9767;SDS011;4923;52.520;13.494;2024-02-15T05:25:45;10.02;;;8.98;;
9767;SDS011;4923;52.520;13.494;2024-02-15T05:28:32;10.75;;;9.02;;
9767;SDS011;4923;52.520;13.494;2024-02-15T05:31:23;11.70;;;9.53;;
9767;SDS011;4923;52.520;13.494;2024-02-15T05:34:12;9.55;;;8.43;;
9767;SDS011;4923;52.520;13.494;2024-02-15T05:36:59;10.07;;;9.07;;
9767;SDS011;4923;52.520;13.494;2024-02-15T05:39:46;11.13;;;9.85;;
9767;SDS011;4923;52.520;13.494;2024-02-15T05:42:38;10.50;;;9.05;;
9767;SDS011;4923;52.520;13.494;2024-02-15T05:45:29;9.68;;;8.55;;
9767;SDS011;4923;52.520;13.494;2024-02-15T05:48:20;9.68;;;8.85;;
9767;SDS011;4923;52.520;13.494;2024-02-15T05:51:07;11.15;;;9.63;;
9767;SDS011;4923;52.520;13.494;2024-02-15T05:53:55;10.13;;;9.13;;
9767;SDS011;4923;52.520;13.494;2024-02-15T05:56:43;10.45;;;8.27;;
9767;SDS011;4923;52.520;13.494;2024-02-15T05:59:31;9.27;;;8.37;;
9767;SDS011;4923;52.520;13.494;2024-02-15T06:02:18;11.60;;;9.10;;
9767;SDS011;4923;52.520;13.494;2024-02-15T06:05:07;11.25;;;8.85;;
9767;SDS011;4923;52.520;13.494;2024-02-15T06:07:55;9.77;;;8.63;;
9767;SDS011;4923;52.520;13.494;2024-02-15T06:10:43;11.13;;;8.98;;
9767;SDS011;4923;52.520;13.494;2024-02-15T06:13:32;9.27;;;8.35;;
9767;SDS011;4923;52.520;13.494;2024-02-15T06:16:20;10.30;;;8.87;;
9767;SDS011;4923;52.520;13.494;2024-02-15T06:19:07;10.00;;;8.70;;
9767;SDS011;4923;52.520;13.494;2024-02-15T06:21:55;9.53;;;8.50;;
9767;SDS011;4923;52.520;13.494;2024-02-15T06:24:42;10.05;;;9.07;;
9767;SDS011;4923;52.520;13.494;2024-02-15T06:27:29;9.73;;;8.82;;
9767;SDS011;4923;52.520;13.494;2024-02-15T06:30:16;15.80;;;8.65;;
9767;SDS011;4923;52.520;13.494;2024-02-15T06:33:21;9.37;;;8.47;;
9767;SDS011;4923;52.520;13.494;2024-02-15T06:36:26;11.55;;;8.75;;
9767;SDS011;4923;52.520;13.494;2024-02-15T06:39:32;9.68;;;8.63;;
9767;SDS011;4923;52.520;13.494;2024-02-15T06:42:26;13.13;;;9.25;;
9767;SDS011;4923;52.520;13.494;2024-02-15T06:45:19;8.53;;;7.70;;
9767;SDS011;4923;52.520;13.494;2024-02-15T06:48:06;9.47;;;8.57;;
9767;SDS011;4923;52.520;13.494;2024-02-15T06:50:54;9.07;;;8.00;;
9767;SDS011;4923;52.520;13.494;2024-02-15T06:53:41;14.93;;;8.40;;
9767;SDS011;4923;52.520;13.494;2024-02-15T06:56:29;12.30;;;8.50;;
9767;SDS011;4923;52.520;13.494;2024-02-15T06:59:16;10.93;;;8.43;;
9767;SDS011;4923;52.520;13.494;2024-02-15T07:02:07;9.90;;;8.10;;
9767;SDS011;4923;52.520;13.494;2024-02-15T07:04:54;11.93;;;9.07;;
9767;SDS011;4923;52.520;13.494;2024-02-15T07:07:45;9.47;;;8.43;;
9767;SDS011;4923;52.520;13.494;2024-02-15T07:10:32;12.27;;;8.25;;
9767;SDS011;4923;52.520;13.494;2024-02-15T07:13:20;9.10;;;8.20;;
9767;SDS011;4923;52.520;13.494;2024-02-15T07:16:07;16.13;;;9.70;;
9767;SDS011;4923;52.520;13.494;2024-02-15T07:18:55;10.30;;;8.90;;
9767;SDS011;4923;52.520;13.494;2024-02-15T07:21:42;9.77;;;8.87;;
9767;SDS011;4923;52.520;13.494;2024-02-15T07:24:29;9.57;;;7.73;;
9767;SDS011;4923;52.520;13.494;2024-02-15T07:27:16;8.80;;;7.60;;
9767;SDS011;4923;52.520;13.494;2024-02-15T07:30:05;8.27;;;7.57;;
9767;SDS011;4923;52.520;13.494;2024-02-15T07:32:54;8.80;;;8.00;;
9767;SDS011;4923;52.520;13.494;2024-02-15T07:35:41;8.57;;;7.67;;
9767;SDS011;4923;52.520;13.494;2024-02-15T07:38:28;8.07;;;7.30;;
9767;SDS011;4923;52.520;13.494;2024-02-15T07:41:20;8.70;;;7.83;;
9767;SDS011;4923;52.520;13.494;2024-02-15T07:44:08;8.83;;;8.07;;
9767;SDS011;4923;52.520;13.494;2024-02-15T07:46:57;8.70;;;7.90;;
9767;SDS011;4923;52.520;13.494;2024-02-15T07:49:46;11.30;;;7.40;;
9767;SDS011;4923;52.520;13.494;2024-02-15T07:52:33;9.27;;;7.90;;
9767;SDS011;4923;52.520;13.494;2024-02-15T07:55:20;9.77;;;8.07;;
9767;SDS011;4923;52.520;13.494;2024-02-15T07:58:07;8.33;;;7.63;;
9767;SDS011;4923;52.520;13.494;2024-02-15T08:00:54;8.23;;;7.43;;
9767;SDS011;4923;52.520;13.494;2024-02-15T08:03:43;8.47;;;7.60;;
9767;SDS011;4923;52.520;13.494;2024-02-15T08:06:32;12.47;;;8.07;;
9767;SDS011;4923;52.520;13.494;2024-02-15T08:09:22;9.83;;;7.30;;
9767;SDS011;4923;52.520;13.494;2024-02-15T08:12:09;7.60;;;6.90;;
9767;SDS011;4923;52.520;13.494;2024-02-15T08:14:56;8.23;;;7.03;;
9767;SDS011;4923;52.520;13.494;2024-02-15T08:17:44;7.90;;;7.10;;
9767;SDS011;4923;52.520;13.494;2024-02-15T08:20:33;7.77;;;7.13;;
9767;SDS011;4923;52.520;13.494;2024-02-15T08:23:20;8.23;;;7.17;;
9767;SDS011;4923;52.520;13.494;2024-02-15T08:26:07;7.83;;;7.17;;
9767;SDS011;4923;52.520;13.494;2024-02-15T08:28:56;7.60;;;7.00;;
9767;SDS011;4923;52.520;13.494;2024-02-15T08:31:43;7.37;;;6.67;;
9767;SDS011;4923;52.520;13.494;2024-02-15T08:34:32;7.70;;;6.97;;
9767;SDS011;4923;52.520;13.494;2024-02-15T08:37:20;6.03;;;5.53;;
9767;SDS011;4923;52.520;13.494;2024-02-15T08:40:08;5.90;;;5.50;;
9767;SDS011;4923;52.520;13.494;2024-02-15T08:42:57;7.17;;;5.73;;
9767;SDS011;4923;52.520;13.494;2024-02-15T08:45:46;6.73;;;6.23;;
9767;SDS011;4923;52.520;13.494;2024-02-15T08:48:34;6.40;;;6.00;;
9767;SDS011;4923;52.520;13.494;2024-02-15T08:51:21;7.97;;;7.00;;
9767;SDS011;4923;52.520;13.494;2024-02-15T08:54:10;7.00;;;6.40;;
9767;SDS011;4923;52.520;13.494;2024-02-15T08:56:57;8.07;;;6.17;;
9767;SDS011;4923;52.520;13.494;2024-02-15T08:59:44;7.67;;;7.00;;
9767;SDS011;4923;52.520;13.494;2024-02-15T09:02:31;7.20;;;5.63;;
9767;SDS011;4923;52.520;13.494;2024-02-15T09:05:18;11.43;;;5.80;;
9767;SDS011;4923;52.520;13.494;2024-02-15T09:08:07;6.50;;;6.00;;
9767;SDS011;4923;52.520;13.494;2024-02-15T09:10:56;6.43;;;5.93;;
9767;SDS011;4923;52.520;13.494;2024-02-15T09:13:43;7.83;;;6.27;;
9767;SDS011;4923;52.520;13.494;2024-02-15T09:16:30;7.33;;;6.10;;
9767;SDS011;4923;52.520;13.494;2024-02-15T09:19:19;7.87;;;6.47;;
9767;SDS011;4923;52.520;13.494;2024-02-15T09:22:05;6.40;;;5.73;;
9767;SDS011;4923;52.520;13.494;2024-02-15T09:24:54;6.63;;;6.23;;
9767;SDS011;4923;52.520;13.494;2024-02-15T09:27:42;5.70;;;5.40;;
9767;SDS011;4923;52.520;13.494;2024-02-15T09:30:31;6.10;;;5.73;;
9767;SDS011;4923;52.520;13.494;2024-02-15T09:33:20;6.37;;;5.93;;
9767;SDS011;4923;52.520;13.494;2024-02-15T09:36:07;10.80;;;5.73;;
9767;SDS011;4923;52.520;13.494;2024-02-15T09:38:54;8.30;;;5.67;;
9767;SDS011;4923;52.520;13.494;2024-02-15T09:41:41;6.70;;;6.20;;
9767;SDS011;4923;52.520;13.494;2024-02-15T09:44:30;5.73;;;5.17;;
9767;SDS011;4923;52.520;13.494;2024-02-15T09:47:17;5.47;;;5.00;;
9767;SDS011;4923;52.520;13.494;2024-02-15T09:50:05;5.63;;;4.87;;
9767;SDS011;4923;52.520;13.494;2024-02-15T09:52:53;5.70;;;5.30;;
9767;SDS011;4923;52.520;13.494;2024-02-15T09:55:41;10.80;;;7.13;;
9767;SDS011;4923;52.520;13.494;2024-02-15T09:58:29;8.03;;;6.03;;
9767;SDS011;4923;52.520;13.494;2024-02-15T10:01:21;7.83;;;6.00;;
9767;SDS011;4923;52.520;13.494;2024-02-15T10:04:09;5.83;;;4.93;;
9767;SDS011;4923;52.520;13.494;2024-02-15T10:07:00;6.23;;;5.73;;
9767;SDS011;4923;52.520;13.494;2024-02-15T10:09:47;6.10;;;5.70;;
9767;SDS011;4923;52.520;13.494;2024-02-15T10:12:36;5.53;;;5.00;;
9767;SDS011;4923;52.520;13.494;2024-02-15T10:15:28;6.03;;;5.53;;
9767;SDS011;4923;52.520;13.494;2024-02-15T10:18:17;5.80;;;5.20;;
9767;SDS011;4923;52.520;13.494;2024-02-15T10:21:07;5.27;;;4.77;;
9767;SDS011;4923;52.520;13.494;2024-02-15T10:24:04;5.97;;;5.40;;
9767;SDS011;4923;52.520;13.494;2024-02-15T10:26:59;5.97;;;5.37;;
9767;SDS011;4923;52.520;13.494;2024-02-15T10:29:49;4.70;;;4.47;;
9767;SDS011;4923;52.520;13.494;2024-02-15T10:32:36;4.60;;;4.40;;
9767;SDS011;4923;52.520;13.494;2024-02-15T10:35:25;5.57;;;5.17;;
9767;SDS011;4923;52.520;13.494;2024-02-15T10:38:12;5.00;;;4.60;;
9767;SDS011;4923;52.520;13.494;2024-02-15T10:41:02;5.30;;;4.30;;
9767;SDS011;4923;52.520;13.494;2024-02-15T10:43:52;4.87;;;4.53;;
9767;SDS011;4923;52.520;13.494;2024-02-15T10:46:40;4.80;;;4.50;;
9767;SDS011;4923;52.520;13.494;2024-02-15T10:49:28;4.90;;;4.43;;
9767;SDS011;4923;52.520;13.494;2024-02-15T10:52:16;3.83;;;3.57;;
9767;SDS011;4923;52.520;13.494;2024-02-15T10:55:06;4.17;;;3.97;;
9767;SDS011;4923;52.520;13.494;2024-02-15T10:57:59;3.53;;;3.33;;
9767;SDS011;4923;52.520;13.494;2024-02-15T11:00:49;4.40;;;4.20;;
9767;SDS011;4923;52.520;13.494;2024-02-15T11:03:40;5.90;;;4.40;;
9767;SDS011;4923;52.520;13.494;2024-02-15T11:06:38;3.80;;;3.70;;
9767;SDS011;4923;52.520;13.494;2024-02-15T11:09:28;3.70;;;3.50;;
9767;SDS011;4923;52.520;13.494;2024-02-15T11:12:16;5.00;;;3.57;;
9767;SDS011;4923;52.520;13.494;2024-02-15T11:15:03;3.77;;;3.50;;
9767;SDS011;4923;52.520;13.494;2024-02-15T11:17:52;4.30;;;3.93;;
9767;SDS011;4923;52.520;13.494;2024-02-15T11:20:45;3.93;;;3.73;;
9767;SDS011;4923;52.520;13.494;2024-02-15T11:23:34;4.07;;;3.87;;
9767;SDS011;4923;52.520;13.494;2024-02-15T11:32:37;4.80;;;3.27;;
9767;SDS011;4923;52.520;13.494;2024-02-15T11:35:29;3.80;;;3.50;;
9767;SDS011;4923;52.520;13.494;2024-02-15T11:38:27;3.77;;;3.17;;
9767;SDS011;4923;52.520;13.494;2024-02-15T11:41:17;3.50;;;3.40;;
9767;SDS011;4923;52.520;13.494;2024-02-15T11:44:04;3.23;;;3.03;;
9767;SDS011;4923;52.520;13.494;2024-02-15T11:46:53;2.37;;;2.27;;
9767;SDS011;4923;52.520;13.494;2024-02-15T11:49:42;2.33;;;2.23;;
9767;SDS011;4923;52.520;13.494;2024-02-15T11:52:29;2.63;;;2.43;;
9767;SDS011;4923;52.520;13.494;2024-02-15T11:55:20;2.63;;;2.47;;
9767;SDS011;4923;52.520;13.494;2024-02-15T11:58:09;2.80;;;2.40;;
9767;SDS011;4923;52.520;13.494;2024-02-15T12:01:07;3.97;;;2.50;;
9767;SDS011;4923;52.520;13.494;2024-02-15T12:04:13;2.20;;;2.10;;
9767;SDS011;4923;52.520;13.494;2024-02-15T12:07:17;2.80;;;2.60;;
9767;SDS011;4923;52.520;13.494;2024-02-15T12:10:22;2.60;;;2.50;;
9767;SDS011;4923;52.520;13.494;2024-02-15T12:13:27;2.03;;;1.93;;
9767;SDS011;4923;52.520;13.494;2024-02-15T12:16:31;2.40;;;2.23;;
9767;SDS011;4923;52.520;13.494;2024-02-15T12:19:37;3.03;;;2.40;;
9767;SDS011;4923;52.520;13.494;2024-02-15T12:22:26;1.90;;;1.90;;
9767;SDS011;4923;52.520;13.494;2024-02-15T12:25:17;2.03;;;2.03;;
9767;SDS011;4923;52.520;13.494;2024-02-15T12:28:06;2.50;;;2.40;;
9767;SDS011;4923;52.520;13.494;2024-02-15T12:30:54;3.93;;;2.67;;
9767;SDS011;4923;52.520;13.494;2024-02-15T12:33:42;1.93;;;1.90;;
9767;SDS011;4923;52.520;13.494;2024-02-15T12:36:31;4.77;;;2.33;;
9767;SDS011;4923;52.520;13.494;2024-02-15T12:39:23;2.93;;;2.83;;
9767;SDS011;4923;52.520;13.494;2024-02-15T12:42:13;2.00;;;1.90;;
9767;SDS011;4923;52.520;13.494;2024-02-15T12:45:00;2.23;;;2.13;;
9767;SDS011;4923;52.520;13.494;2024-02-15T12:47:49;3.17;;;2.10;;
9767;SDS011;4923;52.520;13.494;2024-02-15T12:50:37;4.63;;;2.17;;
9767;SDS011;4923;52.520;13.494;2024-02-15T12:53:25;8.23;;;3.00;;
9767;SDS011;4923;52.520;13.494;2024-02-15T12:56:19;1.87;;;1.73;;
9767;SDS011;4923;52.520;13.494;2024-02-15T12:59:08;2.93;;;2.03;;
9767;SDS011;4923;52.520;13.494;2024-02-15T13:01:54;1.60;;;1.60;;
9767;SDS011;4923;52.520;13.494;2024-02-15T13:04:41;5.87;;;2.40;;
9767;SDS011;4923;52.520;13.494;2024-02-15T13:07:28;3.93;;;2.20;;
9767;SDS011;4923;52.520;13.494;2024-02-15T13:10:16;2.00;;;1.90;;
9767;SDS011;4923;52.520;13.494;2024-02-15T13:13:04;1.97;;;1.90;;
9767;SDS011;4923;52.520;13.494;2024-02-15T13:15:51;2.30;;;2.20;;
9767;SDS011;4923;52.520;13.494;2024-02-15T13:18:39;2.40;;;1.50;;
9767;SDS011;4923;52.520;13.494;2024-02-15T13:21:26;2.23;;;2.03;;
9767;SDS011;4923;52.520;13.494;2024-02-15T13:24:15;1.47;;;1.47;;
9767;SDS011;4923;52.520;13.494;2024-02-15T13:27:04;3.50;;;1.67;;
9767;SDS011;4923;52.520;13.494;2024-02-15T13:29:51;1.50;;;1.40;;
9767;SDS011;4923;52.520;13.494;2024-02-15T13:32:39;5.03;;;1.50;;
9767;SDS011;4923;52.520;13.494;2024-02-15T13:35:27;1.73;;;1.73;;
9767;SDS011;4923;52.520;13.494;2024-02-15T13:38:14;1.77;;;1.77;;
9767;SDS011;4923;52.520;13.494;2024-02-15T13:41:07;1.90;;;1.50;;
9767;SDS011;4923;52.520;13.494;2024-02-15T13:43:56;1.93;;;1.80;;
9767;SDS011;4923;52.520;13.494;2024-02-15T13:46:43;4.00;;;2.00;;
9767;SDS011;4923;52.520;13.494;2024-02-15T13:49:29;1.57;;;1.57;;
9767;SDS011;4923;52.520;13.494;2024-02-15T13:52:19;1.37;;;1.30;;
9767;SDS011;4923;52.520;13.494;2024-02-15T13:55:07;1.53;;;1.37;;
9767;SDS011;4923;52.520;13.494;2024-02-15T13:57:56;1.60;;;1.50;;
9767;SDS011;4923;52.520;13.494;2024-02-15T14:00:45;15.53;;;3.53;;
9767;SDS011;4923;52.520;13.494;2024-02-15T14:03:33;1.60;;;1.50;;
9767;SDS011;4923;52.520;13.494;2024-02-15T14:06:20;1.20;;;1.10;;
9767;SDS011;4923;52.520;13.494;2024-02-15T14:09:07;1.50;;;1.20;;
9767;SDS011;4923;52.520;13.494;2024-02-15T14:11:56;2.20;;;1.10;;
9767;SDS011;4923;52.520;13.494;2024-02-15T14:14:43;1.23;;;1.23;;
9767;SDS011;4923;52.520;13.494;2024-02-15T14:17:32;1.53;;;0.97;;
9767;SDS011;4923;52.520;13.494;2024-02-15T14:20:20;1.00;;;1.00;;
9767;SDS011;4923;52.520;13.494;2024-02-15T14:23:07;5.10;;;1.07;;
9767;SDS011;4923;52.520;13.494;2024-02-15T14:25:58;1.13;;;1.03;;
9767;SDS011;4923;52.520;13.494;2024-02-15T14:28:47;1.73;;;1.00;;
9767;SDS011;4923;52.520;13.494;2024-02-15T14:31:35;1.60;;;0.97;;
9767;SDS011;4923;52.520;13.494;2024-02-15T14:34:40;1.57;;;1.30;;
9767;SDS011;4923;52.520;13.494;2024-02-15T14:37:27;1.40;;;1.03;;
9767;SDS011;4923;52.520;13.494;2024-02-15T14:40:14;2.13;;;1.07;;
9767;SDS011;4923;52.520;13.494;2024-02-15T14:43:01;2.30;;;0.90;;
9767;SDS011;4923;52.520;13.494;2024-02-15T14:45:49;1.00;;;0.90;;
9767;SDS011;4923;52.520;13.494;2024-02-15T14:48:36;1.80;;;1.47;;
9767;SDS011;4923;52.520;13.494;2024-02-15T14:51:26;2.03;;;1.07;;
9767;SDS011;4923;52.520;13.494;2024-02-15T14:54:13;1.63;;;1.53;;
9767;SDS011;4923;52.520;13.494;2024-02-15T14:57:00;2.50;;;1.10;;
9767;SDS011;4923;52.520;13.494;2024-02-15T14:59:47;2.60;;;1.10;;
9767;SDS011;4923;52.520;13.494;2024-02-15T15:02:34;1.23;;;1.20;;
9767;SDS011;4923;52.520;13.494;2024-02-15T15:05:21;1.10;;;1.10;;
9767;SDS011;4923;52.520;13.494;2024-02-15T15:08:28;1.90;;;1.40;;
9767;SDS011;4923;52.520;13.494;2024-02-15T15:11:32;2.53;;;1.20;;
9767;SDS011;4923;52.520;13.494;2024-02-15T15:14:37;1.37;;;1.27;;
9767;SDS011;4923;52.520;13.494;2024-02-15T15:17:24;4.67;;;1.23;;
9767;SDS011;4923;52.520;13.494;2024-02-15T15:20:13;3.63;;;1.27;;
9767;SDS011;4923;52.520;13.494;2024-02-15T15:23:02;1.63;;;1.60;;
9767;SDS011;4923;52.520;13.494;2024-02-15T15:25:51;1.57;;;1.10;;
9767;SDS011;4923;52.520;13.494;2024-02-15T15:28:38;1.57;;;1.50;;
9767;SDS011;4923;52.520;13.494;2024-02-15T15:31:25;1.23;;;1.23;;
9767;SDS011;4923;52.520;13.494;2024-02-15T15:34:12;5.70;;;1.20;;
9767;SDS011;4923;52.520;13.494;2024-02-15T15:36:58;1.73;;;1.63;;
9767;SDS011;4923;52.520;13.494;2024-02-15T15:39:46;1.40;;;1.40;;
9767;SDS011;4923;52.520;13.494;2024-02-15T15:42:34;1.40;;;1.20;;
9767;SDS011;4923;52.520;13.494;2024-02-15T15:45:22;3.63;;;1.37;;
9767;SDS011;4923;52.520;13.494;2024-02-15T15:48:10;2.93;;;2.00;;
9767;SDS011;4923;52.520;13.494;2024-02-15T15:50:58;3.17;;;1.50;;
9767;SDS011;4923;52.520;13.494;2024-02-15T15:53:46;11.30;;;1.63;;
9767;SDS011;4923;52.520;13.494;2024-02-15T15:56:34;2.73;;;2.17;;
9767;SDS011;4923;52.520;13.494;2024-02-15T15:59:23;3.90;;;1.87;;
9767;SDS011;4923;52.520;13.494;2024-02-15T16:02:09;1.40;;;1.40;;
9767;SDS011;4923;52.520;13.494;2024-02-15T16:04:57;4.80;;;1.93;;
9767;SDS011;4923;52.520;13.494;2024-02-15T16:07:45;2.83;;;1.87;;
9767;SDS011;4923;52.520;13.494;2024-02-15T16:10:32;5.37;;;1.93;;
9767;SDS011;4923;52.520;13.494;2024-02-15T16:13:21;1.90;;;1.80;;
9767;SDS011;4923;52.520;13.494;2024-02-15T16:16:10;1.80;;;1.70;;
9767;SDS011;4923;52.520;13.494;2024-02-15T16:18:57;5.70;;;1.93;;
9767;SDS011;4923;52.520;13.494;2024-02-15T16:21:45;2.00;;;1.90;;
9767;SDS011;4923;52.520;13.494;2024-02-15T16:24:32;1.93;;;1.83;;
9767;SDS011;4923;52.520;13.494;2024-02-15T16:27:19;2.60;;;2.37;;
9767;SDS011;4923;52.520;13.494;2024-02-15T16:30:06;3.57;;;1.87;;
9767;SDS011;4923;52.520;13.494;2024-02-15T16:32:57;2.03;;;1.87;;
9767;SDS011;4923;52.520;13.494;2024-02-15T16:35:43;3.60;;;2.20;;
9767;SDS011;4923;52.520;13.494;2024-02-15T16:38:31;2.10;;;1.70;;
9767;SDS011;4923;52.520;13.494;2024-02-15T16:41:19;5.93;;;2.30;;
9767;SDS011;4923;52.520;13.494;2024-02-15T16:44:05;2.40;;;1.90;;
9767;SDS011;4923;52.520;13.494;2024-02-15T16:46:52;1.80;;;1.70;;
9767;SDS011;4923;52.520;13.494;2024-02-15T16:49:40;2.50;;;2.30;;
9767;SDS011;4923;52.520;13.494;2024-02-15T16:52:27;5.23;;;2.73;;
9767;SDS011;4923;52.520;13.494;2024-02-15T16:55:14;2.30;;;2.13;;
9767;SDS011;4923;52.520;13.494;2024-02-15T16:58:02;3.97;;;2.57;;
9767;SDS011;4923;52.520;13.494;2024-02-15T17:00:53;2.67;;;2.13;;
9767;SDS011;4923;52.520;13.494;2024-02-15T17:03:40;5.33;;;2.10;;
9767;SDS011;4923;52.520;13.494;2024-02-15T17:06:29;2.80;;;2.60;;
9767;SDS011;4923;52.520;13.494;2024-02-15T17:09:15;6.20;;;1.60;;
9767;SDS011;4923;52.520;13.494;2024-02-15T17:12:03;3.00;;;2.67;;
9767;SDS011;4923;52.520;13.494;2024-02-15T17:14:51;4.30;;;2.70;;